createdAt,value
2022-11-23T00:03:25.053Z,9.30
2022-11-23T00:08:27.594Z,7.90
2022-11-23T00:13:32.956Z,8.07
2022-11-23T00:18:35.319Z,9.00
2022-11-23T00:23:49.286Z,7.77
2022-11-23T00:28:59.995Z,8.20
2022-11-23T00:34:07.327Z,8.30
2022-11-23T00:39:13.030Z,7.07
2022-11-23T00:44:19.346Z,7.40
2022-11-23T00:49:22.787Z,7.47
2022-11-23T00:54:24.658Z,7.27
2022-11-23T00:59:34.975Z,7.10
2022-11-23T01:04:39.321Z,6.40
2022-11-23T01:09:41.275Z,6.30
2022-11-23T01:14:45.318Z,6.87
2022-11-23T01:19:49.550Z,6.90
2022-11-23T01:24:53.470Z,7.30
2022-11-23T01:29:59.847Z,6.90
2022-11-23T01:35:05.853Z,6.83
2022-11-23T01:40:08.377Z,6.33
2022-11-23T01:45:34.990Z,6.30
2022-11-23T01:50:36.956Z,5.87
2022-11-23T01:55:41.286Z,6.07
2022-11-23T02:00:46.102Z,6.77
2022-11-23T02:06:01.344Z,5.80
2022-11-23T02:11:03.410Z,6.50
2022-11-23T02:16:05.546Z,6.97
2022-11-23T02:21:11.891Z,6.80
2022-11-23T02:26:37.746Z,6.33
2022-11-23T02:31:55.533Z,6.40
2022-11-23T02:37:08.321Z,7.33
2022-11-23T02:42:15.055Z,7.33
2022-11-23T02:47:21.098Z,6.63
2022-11-23T02:52:34.578Z,7.70
2022-11-23T02:57:37.248Z,7.40
2022-11-23T03:02:41.649Z,8.17
2022-11-23T03:07:46.523Z,7.83
2022-11-23T03:12:48.432Z,7.60
2022-11-23T03:17:50.820Z,8.43
2022-11-23T03:22:54.402Z,8.27
2022-11-23T03:28:00.716Z,8.03
2022-11-23T03:33:05.189Z,8.70
2022-11-23T03:38:07.252Z,8.90
2022-11-23T03:43:09.356Z,8.70
2022-11-23T03:48:11.504Z,8.10
2022-11-23T03:53:14.578Z,8.47
2022-11-23T03:58:17.558Z,9.07
2022-11-23T04:03:24.310Z,10.13
2022-11-23T04:08:47.282Z,11.10
2022-11-23T04:13:57.422Z,10.40
2022-11-23T04:19:01.480Z,10.23
2022-11-23T04:24:08.686Z,10.57
2022-11-23T04:29:13.987Z,10.87
2022-11-23T04:34:21.014Z,10.97
2022-11-23T04:39:27.374Z,14.20
2022-11-23T04:44:59.239Z,12.57
2022-11-23T04:50:01.777Z,13.30
2022-11-23T04:55:06.505Z,12.20
2022-11-23T05:00:12.149Z,12.33
2022-11-23T05:05:18.963Z,12.10
2022-11-23T05:10:22.831Z,13.77
2022-11-23T05:15:32.109Z,13.67
2022-11-23T05:20:36.277Z,12.53
2022-11-23T05:25:38.068Z,13.63
2022-11-23T05:30:48.645Z,14.13
2022-11-23T05:35:55.642Z,13.63
2022-11-23T05:41:09.020Z,14.60
2022-11-23T05:46:18.931Z,14.87
2022-11-23T05:51:24.421Z,16.23
2022-11-23T05:56:26.907Z,15.07
2022-11-23T06:01:50.307Z,16.20
2022-11-23T06:07:01.845Z,16.70
2022-11-23T06:12:21.318Z,17.07
2022-11-23T06:17:24.033Z,16.83
2022-11-23T06:22:29.383Z,18.03
2022-11-23T06:27:39.668Z,18.27
2022-11-23T06:32:50.877Z,19.20
2022-11-23T06:37:54.727Z,19.97
2022-11-23T06:43:00.472Z,19.73
2022-11-23T06:48:22.440Z,19.57
2022-11-23T06:53:28.535Z,21.00
2022-11-23T06:58:37.913Z,21.47
2022-11-23T07:03:44.778Z,21.27
2022-11-23T07:09:00.177Z,21.57
2022-11-23T07:14:15.645Z,22.20
2022-11-23T07:19:23.266Z,22.30
2022-11-23T07:24:26.606Z,21.77
2022-11-23T07:29:28.372Z,21.57
2022-11-23T07:34:30.903Z,23.50
2022-11-23T07:39:55.843Z,22.87
2022-11-23T07:44:58.082Z,22.13
2022-11-23T07:49:59.795Z,23.00
2022-11-23T07:55:01.749Z,22.50
2022-11-23T08:00:06.993Z,22.10
2022-11-23T08:05:14.362Z,22.97
2022-11-23T08:10:17.246Z,22.73
2022-11-23T08:15:18.937Z,23.27
2022-11-23T08:20:22.780Z,23.63
2022-11-23T08:25:30.698Z,21.77
2022-11-23T08:30:35.546Z,21.83
2022-11-23T08:35:41.093Z,20.33
2022-11-23T08:40:42.789Z,18.60
2022-11-23T08:45:47.050Z,19.03
2022-11-23T08:50:48.698Z,17.47
2022-11-23T08:55:52.728Z,19.00
2022-11-23T09:00:54.473Z,16.97
2022-11-23T09:06:01.850Z,18.13
2022-11-23T09:11:10.103Z,18.50
2022-11-23T09:16:16.614Z,17.40
2022-11-23T09:21:21.277Z,17.63
2022-11-23T09:26:23.283Z,16.13
2022-11-23T09:31:26.932Z,17.10
2022-11-23T09:36:28.806Z,17.60
2022-11-23T09:42:07.328Z,17.90
2022-11-23T09:47:46.739Z,15.47
2022-11-23T09:52:50.546Z,16.73
2022-11-23T09:57:58.270Z,14.60
2022-11-23T10:03:00.015Z,15.27
2022-11-23T10:08:27.292Z,15.33
2022-11-23T10:13:45.862Z,15.00
2022-11-23T10:18:53.475Z,15.93
2022-11-23T10:24:01.094Z,15.23
2022-11-23T10:29:14.469Z,15.33
2022-11-23T10:34:19.578Z,14.50
2022-11-23T10:39:31.593Z,14.67
2022-11-23T10:44:38.023Z,14.33
2022-11-23T10:49:56.800Z,14.13
2022-11-23T10:55:00.907Z,14.00
2022-11-23T11:00:08.067Z,13.77
2022-11-23T11:05:16.044Z,13.67
2022-11-23T11:10:39.550Z,12.17
2022-11-23T11:15:55.038Z,11.90
2022-11-23T11:21:02.855Z,12.00
2022-11-23T11:26:08.145Z,12.50
2022-11-23T11:31:14.938Z,11.90
2022-11-23T11:36:17.134Z,12.60
2022-11-23T11:41:31.916Z,11.83
2022-11-23T11:46:40.833Z,11.70
2022-11-23T11:52:06.522Z,11.47
2022-11-23T11:57:24.292Z,11.53
2022-11-23T12:02:33.958Z,10.20
2022-11-23T12:07:44.174Z,10.60
2022-11-23T12:12:49.053Z,11.17
2022-11-23T12:18:11.670Z,10.40
2022-11-23T12:23:37.170Z,11.50
2022-11-23T12:28:41.906Z,11.13
2022-11-23T12:33:58.011Z,11.20
2022-11-23T12:39:30.595Z,11.83
2022-11-23T12:44:49.517Z,10.00
2022-11-23T12:50:04.625Z,6.73
2022-11-23T12:55:33.137Z,6.70
2022-11-23T13:00:40.679Z,6.10
2022-11-23T13:05:51.593Z,5.75
2022-11-23T13:11:05.928Z,5.60
2022-11-23T13:16:19.308Z,4.70
2022-11-23T13:21:30.514Z,4.70
2022-11-23T13:26:38.356Z,4.28
2022-11-23T13:31:42.432Z,4.88
2022-11-23T13:37:15.138Z,5.45
2022-11-23T13:42:17.547Z,5.13
2022-11-23T13:47:24.023Z,4.93
2022-11-23T13:52:28.098Z,4.03
2022-11-23T13:57:30.318Z,4.22
2022-11-23T14:02:32.013Z,4.43
2022-11-23T14:07:46.286Z,3.30
2022-11-23T14:12:54.851Z,3.85
2022-11-23T14:18:00.664Z,4.00
2022-11-23T14:23:38.761Z,3.55
2022-11-23T14:28:52.506Z,3.50
2022-11-23T14:34:32.407Z,3.17
2022-11-23T14:39:55.440Z,3.43
2022-11-23T14:45:04.927Z,2.80
2022-11-23T14:50:22.774Z,3.10
2022-11-23T14:55:29.695Z,2.53
2022-11-23T15:00:43.633Z,3.33
2022-11-23T15:06:13.046Z,2.50
2022-11-23T15:11:18.709Z,2.63
2022-11-23T15:16:22.455Z,2.70
2022-11-23T15:21:30.261Z,2.67
2022-11-23T15:26:49.407Z,2.40
2022-11-23T15:32:14.113Z,2.67
2022-11-23T15:37:17.406Z,2.43
2022-11-23T15:42:21.277Z,2.40
2022-11-23T15:47:27.283Z,2.53
2022-11-23T15:52:35.649Z,2.67
2022-11-23T15:57:38.456Z,2.93
2022-11-23T16:02:43.209Z,2.80
2022-11-23T16:08:02.556Z,2.77
2022-11-23T16:13:06.118Z,2.47
2022-11-23T16:18:20.014Z,2.27
2022-11-23T16:23:28.479Z,2.73
2022-11-23T16:28:47.562Z,2.50
2022-11-23T16:33:50.223Z,2.27
2022-11-23T16:38:51.983Z,2.63
2022-11-23T16:43:58.497Z,2.13
2022-11-23T16:49:01.536Z,2.70
2022-11-23T16:54:24.466Z,5.00
2022-11-23T16:59:28.732Z,3.23
2022-11-23T17:04:32.935Z,2.53
2022-11-23T17:09:35.197Z,2.73
2022-11-23T17:14:40.036Z,2.70
2022-11-23T17:19:48.625Z,3.30
2022-11-23T17:24:54.499Z,2.73
2022-11-23T17:30:01.336Z,4.20
2022-11-23T17:35:08.169Z,3.47
2022-11-23T17:40:21.145Z,5.70
2022-11-23T17:45:30.101Z,13.37
2022-11-23T17:50:33.855Z,10.33
2022-11-23T17:55:35.617Z,6.80
2022-11-23T18:00:38.007Z,4.17
2022-11-23T18:05:45.086Z,4.17
2022-11-23T18:10:46.851Z,5.47
2022-11-23T18:15:55.444Z,4.73
2022-11-23T18:20:59.853Z,3.43
2022-11-23T18:26:16.413Z,3.73
2022-11-23T18:31:20.302Z,3.43
2022-11-23T18:36:27.097Z,3.90
2022-11-23T18:41:31.270Z,4.17
2022-11-23T18:46:37.350Z,3.73
2022-11-23T18:51:43.775Z,3.73
2022-11-23T18:56:48.816Z,4.23
2022-11-23T19:01:52.834Z,4.23
2022-11-23T19:06:54.559Z,4.30
2022-11-23T19:11:58.781Z,3.60
2022-11-23T19:17:02.622Z,3.93
2022-11-23T19:22:07.984Z,4.70
2022-11-23T19:27:14.066Z,4.87
2022-11-23T19:32:18.331Z,4.47
2022-11-23T19:37:25.543Z,4.53
2022-11-23T19:42:31.749Z,4.40
2022-11-23T19:47:35.328Z,4.10
2022-11-23T19:53:09.747Z,3.73
2022-11-23T19:58:04.618Z,3.63
2022-11-23T20:03:09.415Z,4.13
2022-11-23T20:08:11.165Z,4.30
2022-11-23T20:13:22.973Z,4.63
2022-11-23T20:18:30.746Z,4.10
2022-11-23T20:23:34.977Z,4.40
2022-11-23T20:28:37.859Z,7.23
2022-11-23T20:33:45.545Z,6.90
2022-11-23T20:38:50.710Z,6.83
2022-11-23T20:43:57.442Z,13.67
2022-11-23T20:49:02.112Z,11.23
2022-11-23T20:54:04.757Z,11.97
2022-11-23T20:59:06.876Z,15.33
2022-11-23T21:04:10.983Z,12.23
2022-11-23T21:09:12.716Z,8.23
2022-11-23T21:14:23.192Z,8.50
2022-11-23T21:19:27.381Z,8.23
2022-11-23T21:24:31.809Z,8.23
2022-11-23T21:29:38.864Z,6.67
2022-11-23T21:34:44.029Z,6.83
2022-11-23T21:39:52.549Z,7.47
2022-11-23T21:44:57.142Z,7.50
2022-11-23T21:50:01.284Z,6.43
2022-11-23T21:55:07.655Z,6.90
2022-11-23T22:00:13.775Z,6.37
2022-11-23T22:05:20.967Z,7.43
2022-11-23T22:10:30.185Z,6.50
2022-11-23T22:15:34.180Z,6.80
2022-11-23T22:20:39.398Z,7.67
2022-11-23T22:25:46.829Z,6.67
2022-11-23T22:30:53.419Z,7.37
2022-11-23T22:36:08.876Z,8.73
2022-11-23T22:41:17.265Z,8.80
2022-11-23T22:46:27.941Z,8.03
2022-11-23T22:51:30.234Z,8.67
2022-11-23T22:56:33.159Z,9.10
2022-11-23T23:01:36.695Z,9.33
2022-11-23T23:06:43.890Z,9.87
2022-11-23T23:11:49.719Z,10.43
2022-11-23T23:16:54.246Z,9.97
2022-11-23T23:22:02.671Z,11.30
2022-11-23T23:27:10.295Z,10.53
2022-11-23T23:32:18.272Z,10.97
2022-11-23T23:37:39.329Z,10.57
2022-11-23T23:43:10.148Z,11.00
2022-11-23T23:48:39.660Z,12.10
2022-11-23T23:53:54.825Z,12.03
2022-11-23T23:59:24.484Z,12.73
